createdAt,value
2018-08-28T00:01:05.701Z,67.23
2018-08-28T00:03:39.445Z,66.71
2018-08-28T00:06:11.068Z,68.21
2018-08-28T00:08:42.967Z,67.42
2018-08-28T00:11:14.934Z,67.21
2018-08-28T00:13:46.753Z,68.14
2018-08-28T00:16:18.911Z,66.98
2018-08-28T00:18:52.043Z,66.47
2018-08-28T00:21:23.888Z,66.77
2018-08-28T00:23:55.673Z,67.98
2018-08-28T00:26:29.705Z,67.17
2018-08-28T00:29:01.740Z,67.28
2018-08-28T00:31:33.629Z,67.24
2018-08-28T00:34:05.440Z,68.05
2018-08-28T00:36:37.373Z,67.40
2018-08-28T00:39:09.084Z,67.32
2018-08-28T00:41:40.934Z,67.95
2018-08-28T00:44:15.524Z,67.09
2018-08-28T00:46:48.796Z,67.22
2018-08-28T00:49:22.010Z,67.35
2018-08-28T00:51:54.068Z,66.55
2018-08-28T00:54:29.453Z,66.54
2018-08-28T00:57:01.232Z,66.72
2018-08-28T00:59:32.945Z,66.20
2018-08-28T01:02:04.813Z,65.77
2018-08-28T01:04:36.874Z,67.23
2018-08-28T01:07:08.901Z,66.50
2018-08-28T01:09:40.852Z,67.44
2018-08-28T01:12:12.610Z,66.36
2018-08-28T01:14:44.643Z,67.07
2018-08-28T01:17:16.644Z,66.90
2018-08-28T01:19:48.723Z,67.17
2018-08-28T01:22:20.712Z,67.86
2018-08-28T01:24:52.928Z,67.17
2018-08-28T01:27:24.996Z,67.46
2018-08-28T01:29:56.791Z,66.24
2018-08-28T01:32:29.053Z,67.00
2018-08-28T01:35:01.209Z,67.12
2018-08-28T01:37:33.112Z,66.69
2018-08-28T01:40:04.985Z,67.30
2018-08-28T01:42:37.101Z,66.40
2018-08-28T01:45:08.672Z,67.08
2018-08-28T01:47:40.800Z,66.83
2018-08-28T01:50:12.921Z,66.44
2018-08-28T01:52:44.710Z,67.03
2018-08-28T01:55:17.448Z,67.42
2018-08-28T01:57:49.292Z,66.66
2018-08-28T02:00:21.292Z,66.48
2018-08-28T02:02:53.076Z,66.25
2018-08-28T02:05:24.931Z,66.02
2018-08-28T02:07:56.759Z,66.93
2018-08-28T02:10:29.911Z,66.72
2018-08-28T02:13:02.119Z,66.99
2018-08-28T02:15:33.908Z,66.55
2018-08-28T02:18:07.404Z,66.98
2018-08-28T02:20:39.475Z,66.29
2018-08-28T02:23:11.749Z,66.12
2018-08-28T02:25:43.551Z,65.96
2018-08-28T02:28:15.922Z,66.86
2018-08-28T02:30:48.153Z,66.68
2018-08-28T02:33:20.127Z,66.36
2018-08-28T02:35:51.788Z,67.16
2018-08-28T02:38:25.096Z,66.81
2018-08-28T02:40:56.878Z,67.12
2018-08-28T02:43:28.855Z,67.92
2018-08-28T02:46:02.347Z,67.98
2018-08-28T02:48:34.541Z,68.33
2018-08-28T02:51:07.621Z,67.83
2018-08-28T02:53:39.942Z,69.07
2018-08-28T02:56:12.316Z,68.48
2018-08-28T02:58:47.197Z,67.83
2018-08-28T03:01:19.056Z,68.98
2018-08-28T03:03:51.162Z,68.35
2018-08-28T03:06:23.467Z,68.04
2018-08-28T03:08:55.471Z,68.16
2018-08-28T03:12:51.576Z,67.39
2018-08-28T03:15:24.331Z,68.19
2018-08-28T03:17:56.464Z,67.84
2018-08-28T03:20:28.904Z,67.39
2018-08-28T03:23:00.777Z,67.18
2018-08-28T03:25:32.951Z,67.91
2018-08-28T03:28:04.908Z,67.32
2018-08-28T03:30:37.230Z,68.71
2018-08-28T03:33:09.361Z,67.95
2018-08-28T03:35:41.564Z,68.37
2018-08-28T03:38:13.771Z,68.57
2018-08-28T03:40:46.385Z,67.30
2018-08-28T03:43:18.958Z,68.32
2018-08-28T03:45:51.890Z,69.85
2018-08-28T03:48:24.496Z,70.99
2018-08-28T03:50:56.519Z,71.66
2018-08-28T03:53:28.345Z,72.86
2018-08-28T03:56:01.153Z,72.70
2018-08-28T03:58:35.082Z,74.13
2018-08-28T04:01:09.420Z,74.80
2018-08-28T04:03:43.310Z,75.39
2018-08-28T04:06:18.389Z,76.03
2018-08-28T04:08:50.894Z,71.91
2018-08-28T04:11:23.003Z,72.23
2018-08-28T04:13:55.552Z,74.07
2018-08-28T04:16:27.394Z,75.48
2018-08-28T04:18:59.773Z,77.04
2018-08-28T04:21:31.774Z,77.51
2018-08-28T04:24:03.863Z,77.85
2018-08-28T04:26:36.610Z,78.47
2018-08-28T04:29:09.068Z,77.47
2018-08-28T04:31:41.027Z,78.08
2018-08-28T04:34:13.041Z,77.58
2018-08-28T04:36:45.226Z,77.94
2018-08-28T04:39:16.942Z,78.07
2018-08-28T04:41:49.078Z,78.04
2018-08-28T04:44:22.116Z,78.72
2018-08-28T04:46:54.213Z,68.67
2018-08-28T04:49:26.473Z,61.80
2018-08-28T04:51:58.395Z,67.44
2018-08-28T04:54:30.263Z,68.27
2018-08-28T04:57:02.206Z,68.19
2018-08-28T04:59:34.298Z,68.51
2018-08-28T05:02:08.007Z,68.45
2018-08-28T05:04:40.449Z,71.95
2018-08-28T05:07:12.300Z,76.28
2018-08-28T05:09:44.222Z,78.56
2018-08-28T05:12:15.990Z,78.38
2018-08-28T05:14:49.057Z,79.78
2018-08-28T05:17:21.652Z,80.35
2018-08-28T05:19:53.991Z,80.44
2018-08-28T05:22:26.718Z,79.84
2018-08-28T05:24:58.766Z,80.24
2018-08-28T05:27:31.219Z,80.35
2018-08-28T05:30:03.293Z,81.34
2018-08-28T05:32:36.420Z,81.51
2018-08-28T05:35:08.764Z,79.74
2018-08-28T05:37:41.252Z,80.02
2018-08-28T05:40:12.983Z,80.78
2018-08-28T05:42:45.113Z,80.89
2018-08-28T05:45:16.963Z,80.92
2018-08-28T05:47:48.732Z,82.24
2018-08-28T05:50:20.569Z,81.52
2018-08-28T05:52:52.374Z,81.30
2018-08-28T05:55:24.550Z,81.76
2018-08-28T05:57:56.998Z,81.54
2018-08-28T06:00:29.282Z,81.07
2018-08-28T06:03:02.193Z,80.84
2018-08-28T06:05:34.346Z,81.19
2018-08-28T06:08:06.653Z,80.71
2018-08-28T06:10:38.675Z,81.14
2018-08-28T06:13:11.123Z,80.83
2018-08-28T06:15:43.151Z,79.91
2018-08-28T06:18:15.264Z,80.86
2018-08-28T06:20:47.233Z,80.26
2018-08-28T06:23:18.994Z,81.24
2018-08-28T06:25:51.075Z,81.22
2018-08-28T06:28:23.540Z,82.07
2018-08-28T06:30:55.329Z,82.05
2018-08-28T06:33:27.159Z,80.93
2018-08-28T06:35:59.013Z,80.63
2018-08-28T06:38:31.088Z,81.10
2018-08-28T06:41:03.056Z,80.48
2018-08-28T06:43:34.889Z,81.08
2018-08-28T06:46:06.779Z,80.76
2018-08-28T06:48:38.798Z,81.04
2018-08-28T06:51:10.641Z,81.14
2018-08-28T06:53:42.464Z,80.53
2018-08-28T06:56:14.421Z,81.50
2018-08-28T06:58:46.818Z,81.80
2018-08-28T07:01:18.839Z,82.12
2018-08-28T07:03:51.264Z,81.50
2018-08-28T07:06:22.868Z,82.44
2018-08-28T07:08:54.670Z,83.17
2018-08-28T07:11:26.519Z,83.11
2018-08-28T07:13:59.103Z,82.80
2018-08-28T07:16:30.986Z,82.74
2018-08-28T07:19:03.184Z,82.57
2018-08-28T07:21:35.938Z,81.68
2018-08-28T07:24:07.961Z,81.79
2018-08-28T07:26:39.832Z,81.97
2018-08-28T07:29:12.514Z,82.13
2018-08-28T07:31:44.321Z,81.26
2018-08-28T07:34:16.299Z,81.80
2018-08-28T07:36:49.953Z,80.88
2018-08-28T07:39:23.119Z,81.25
2018-08-28T07:41:55.985Z,80.81
2018-08-28T07:44:28.061Z,79.68
2018-08-28T07:46:59.964Z,79.82
2018-08-28T07:49:32.144Z,79.81
2018-08-28T07:52:04.070Z,79.95
2018-08-28T07:54:36.087Z,80.04
2018-08-28T07:57:07.947Z,80.27
2018-08-28T07:59:40.477Z,79.59
2018-08-28T08:02:12.482Z,80.03
2018-08-28T08:04:45.029Z,79.92
2018-08-28T08:07:17.177Z,80.00
2018-08-28T08:09:49.108Z,79.37
2018-08-28T08:12:21.056Z,79.44
2018-08-28T08:14:53.218Z,80.34
2018-08-28T08:17:26.853Z,80.85
2018-08-28T08:19:59.238Z,81.53
2018-08-28T08:22:31.852Z,81.08
2018-08-28T08:25:05.191Z,80.44
2018-08-28T08:27:36.861Z,79.62
2018-08-28T08:30:09.570Z,79.19
2018-08-28T08:32:42.219Z,79.23
2018-08-28T08:35:14.344Z,79.93
2018-08-28T08:37:46.511Z,79.32
2018-08-28T08:40:18.398Z,79.38
2018-08-28T08:42:51.403Z,79.91
2018-08-28T08:45:23.447Z,80.21
2018-08-28T08:47:55.352Z,80.37
2018-08-28T08:50:27.893Z,79.70
2018-08-28T08:53:00.000Z,80.35
2018-08-28T08:55:32.572Z,80.64
2018-08-28T08:58:06.619Z,80.23
2018-08-28T09:00:39.396Z,79.47
2018-08-28T09:03:11.617Z,80.23
2018-08-28T09:05:43.428Z,79.59
2018-08-28T09:08:15.580Z,78.30
2018-08-28T09:10:47.264Z,79.59
2018-08-28T09:13:19.142Z,79.63
2018-08-28T09:15:51.414Z,79.40
2018-08-28T09:18:23.298Z,79.89
2018-08-28T09:20:55.754Z,78.15
2018-08-28T09:23:27.747Z,78.02
2018-08-28T09:26:01.399Z,78.30
2018-08-28T09:28:34.147Z,78.15
2018-08-28T09:31:06.568Z,77.52
2018-08-28T09:33:38.613Z,76.61
2018-08-28T09:36:09.251Z,75.81
2018-08-28T09:38:41.230Z,76.41
2018-08-28T09:41:13.197Z,75.40
2018-08-28T09:43:44.902Z,76.75
2018-08-28T09:46:16.762Z,76.61
2018-08-28T09:48:48.634Z,75.94
2018-08-28T09:51:20.690Z,75.78
2018-08-28T09:53:52.529Z,76.74
2018-08-28T09:56:24.801Z,76.65
2018-08-28T09:58:56.622Z,75.90
2018-08-28T10:01:33.746Z,76.06
2018-08-28T10:04:05.912Z,76.50
2018-08-28T10:06:37.825Z,76.46
2018-08-28T10:09:17.736Z,76.03
2018-08-28T10:17:31.132Z,74.82
2018-08-28T10:20:03.031Z,74.08
2018-08-28T10:22:34.820Z,73.49
2018-08-28T10:25:06.807Z,72.73
2018-08-28T10:27:40.161Z,73.58
2018-08-28T10:30:12.251Z,73.46
2018-08-28T10:32:44.425Z,73.89
2018-08-28T10:35:16.712Z,74.00
2018-08-28T10:37:48.473Z,74.59
2018-08-28T10:40:20.253Z,73.82
2018-08-28T10:42:52.349Z,74.50
2018-08-28T10:45:24.472Z,73.45
2018-08-28T10:47:56.197Z,73.70
2018-08-28T10:50:28.051Z,73.87
2018-08-28T10:53:00.293Z,74.65
2018-08-28T10:55:32.455Z,73.72
2018-08-28T10:58:04.373Z,74.70
2018-08-28T11:01:38.989Z,74.92
2018-08-28T11:04:12.326Z,74.84
2018-08-28T11:06:44.138Z,74.58
2018-08-28T11:09:16.060Z,74.74
2018-08-28T11:11:47.720Z,74.51
2018-08-28T11:14:19.820Z,74.67
2018-08-28T11:16:51.530Z,75.76
2018-08-28T11:19:23.540Z,75.42
2018-08-28T11:21:55.529Z,74.90
2018-08-28T11:24:27.103Z,74.96
2018-08-28T11:26:58.936Z,76.10
2018-08-28T11:29:31.238Z,76.50
2018-08-28T11:32:03.398Z,75.15
2018-08-28T11:34:35.700Z,75.43
2018-08-28T11:37:07.389Z,75.74
2018-08-28T11:39:39.413Z,74.80
2018-08-28T11:42:11.442Z,75.09
2018-08-28T11:44:43.499Z,75.52
2018-08-28T11:47:15.660Z,74.85
2018-08-28T11:49:48.103Z,75.01
2018-08-28T11:52:19.928Z,75.05
2018-08-28T11:54:52.061Z,75.26
2018-08-28T11:57:23.915Z,74.45
2018-08-28T11:59:55.910Z,73.44
2018-08-28T12:02:27.968Z,74.68
2018-08-28T12:05:00.748Z,72.75
2018-08-28T12:07:32.955Z,70.33
2018-08-28T12:10:05.719Z,70.71
2018-08-28T12:12:37.787Z,71.19
2018-08-28T12:15:09.659Z,69.90
2018-08-28T12:17:41.766Z,69.81
2018-08-28T12:20:13.562Z,70.17
2018-08-28T12:22:45.381Z,70.01
2018-08-28T12:25:17.528Z,70.30
2018-08-28T12:27:49.184Z,70.64
2018-08-28T12:30:20.996Z,70.47
2018-08-28T12:32:53.214Z,71.36
2018-08-28T12:35:25.542Z,70.51
2018-08-28T12:37:57.871Z,71.72
2018-08-28T12:40:29.915Z,69.86
2018-08-28T12:43:01.808Z,70.53
2018-08-28T12:45:33.687Z,69.94
2018-08-28T12:48:05.495Z,69.81
2018-08-28T12:50:37.137Z,69.66
2018-08-28T12:53:08.869Z,69.41
2018-08-28T12:55:40.862Z,69.40
2018-08-28T12:58:12.842Z,69.06
2018-08-28T13:00:45.132Z,68.74
2018-08-28T13:03:17.138Z,69.98
2018-08-28T13:05:50.171Z,69.72
2018-08-28T13:08:21.930Z,70.95
2018-08-28T13:10:53.871Z,65.72
2018-08-28T13:13:25.849Z,64.64
2018-08-28T13:15:58.228Z,66.88
2018-08-28T13:18:30.056Z,68.34
2018-08-28T13:21:01.823Z,68.57
2018-08-28T13:23:33.790Z,67.87
2018-08-28T13:26:05.873Z,68.21
2018-08-28T13:28:37.968Z,69.14
2018-08-28T13:31:10.169Z,69.41
2018-08-28T13:33:42.178Z,68.74
2018-08-28T13:36:14.484Z,68.64
2018-08-28T13:39:49.372Z,69.06
2018-08-28T13:42:21.563Z,67.63
2018-08-28T13:44:53.847Z,67.98
2018-08-28T13:47:26.319Z,68.66
2018-08-28T13:49:58.205Z,70.49
2018-08-28T13:52:30.132Z,70.45
2018-08-28T13:55:02.103Z,70.72
2018-08-28T13:57:34.256Z,71.43
2018-08-28T14:00:06.201Z,70.39
2018-08-28T14:02:37.929Z,71.20
2018-08-28T14:05:09.979Z,69.74
2018-08-28T14:07:43.092Z,70.23
2018-08-28T14:10:15.473Z,70.18
2018-08-28T14:12:47.610Z,70.66
2018-08-28T14:15:19.661Z,73.00
2018-08-28T14:17:51.913Z,73.00
2018-08-28T14:20:23.698Z,72.76
2018-08-28T14:22:55.724Z,72.98
2018-08-28T14:25:28.277Z,72.99
2018-08-28T14:28:00.762Z,73.10
2018-08-28T14:30:32.568Z,73.71
2018-08-28T14:33:04.701Z,74.37
2018-08-28T14:35:36.859Z,73.73
2018-08-28T14:38:09.544Z,74.62
2018-08-28T14:40:42.294Z,74.84
2018-08-28T14:43:14.757Z,75.26
2018-08-28T14:45:46.361Z,75.84
2018-08-28T14:48:18.862Z,75.30
2018-08-28T14:50:51.165Z,75.17
2018-08-28T14:53:23.412Z,76.15
2018-08-28T14:55:55.336Z,76.15
2018-08-28T14:58:27.503Z,76.34
2018-08-28T15:00:59.897Z,76.36
2018-08-28T15:03:31.880Z,75.90
2018-08-28T15:06:05.181Z,76.31
2018-08-28T15:08:40.216Z,75.33
2018-08-28T15:11:13.693Z,74.53
2018-08-28T15:13:46.444Z,75.68
2018-08-28T15:16:19.363Z,75.69
2018-08-28T15:18:52.341Z,76.71
2018-08-28T15:21:24.913Z,76.25
2018-08-28T15:23:57.468Z,76.17
2018-08-28T15:26:29.219Z,76.10
2018-08-28T15:29:02.268Z,76.61
2018-08-28T15:31:34.128Z,75.99
2018-08-28T15:34:05.992Z,76.14
2018-08-28T15:36:37.946Z,75.35
2018-08-28T15:39:10.225Z,72.23
2018-08-28T15:41:41.979Z,73.04
2018-08-28T15:44:14.118Z,72.82
2018-08-28T15:46:45.874Z,72.36
2018-08-28T15:49:17.869Z,71.50
2018-08-28T15:51:49.740Z,70.75
2018-08-28T15:54:21.713Z,70.07
2018-08-28T15:56:53.517Z,69.00
2018-08-28T15:59:25.516Z,69.06
2018-08-28T16:01:57.512Z,68.69
2018-08-28T16:04:29.336Z,69.38
2018-08-28T16:07:01.083Z,68.06
2018-08-28T16:09:34.114Z,67.62
2018-08-28T16:12:06.153Z,66.78
2018-08-28T16:14:38.105Z,64.48
2018-08-28T16:17:09.883Z,63.94
2018-08-28T16:19:41.519Z,64.40
2018-08-28T16:22:14.688Z,63.59
2018-08-28T16:24:46.692Z,64.58
2018-08-28T16:27:18.473Z,64.54
2018-08-28T16:29:51.182Z,65.00
2018-08-28T16:32:23.151Z,64.51
2018-08-28T16:34:55.462Z,64.28
2018-08-28T16:37:27.313Z,63.98
2018-08-28T16:39:59.335Z,62.80
2018-08-28T16:42:31.365Z,58.38
2018-08-28T16:45:03.665Z,57.83
2018-08-28T16:47:35.628Z,58.24
2018-08-28T16:50:07.762Z,59.15
2018-08-28T16:52:39.371Z,60.05
2018-08-28T16:55:11.456Z,60.90
2018-08-28T16:57:43.574Z,58.49
2018-08-28T17:07:16.512Z,51.66
2018-08-28T17:09:48.740Z,54.00
2018-08-28T17:12:20.924Z,55.05
2018-08-28T17:14:52.856Z,57.10
2018-08-28T17:17:24.667Z,58.04
2018-08-28T17:19:56.924Z,57.08
2018-08-28T17:22:28.944Z,57.61
2018-08-28T17:25:00.525Z,59.23
2018-08-28T17:27:32.330Z,60.27
2018-08-28T17:30:04.585Z,59.41
2018-08-28T17:32:36.786Z,59.05
2018-08-28T17:35:08.469Z,60.20
2018-08-28T17:37:40.344Z,60.61
2018-08-28T17:40:12.316Z,61.09
2018-08-28T17:42:44.215Z,61.01
2018-08-28T17:45:15.985Z,60.16
2018-08-28T17:47:48.045Z,61.21
2018-08-28T17:50:20.186Z,61.91
2018-08-28T17:52:52.166Z,61.32
2018-08-28T17:55:24.100Z,60.59
2018-08-28T17:57:56.394Z,60.63
2018-08-28T18:00:28.425Z,60.71
2018-08-28T18:03:00.608Z,61.25
2018-08-28T18:05:32.299Z,61.25
2018-08-28T18:08:04.185Z,61.42
2018-08-28T18:10:36.505Z,61.99
2018-08-28T18:13:09.008Z,61.92
2018-08-28T18:15:40.762Z,60.65
2018-08-28T18:18:12.626Z,60.91
2018-08-28T18:20:44.506Z,61.31
2018-08-28T18:23:16.665Z,61.66
2018-08-28T18:25:48.222Z,60.86
2018-08-28T18:28:20.044Z,62.75
2018-08-28T18:30:51.840Z,61.96
2018-08-28T18:33:23.782Z,62.62
2018-08-28T18:35:56.349Z,62.44
2018-08-28T18:38:28.601Z,62.17
2018-08-28T18:41:00.486Z,63.42
2018-08-28T18:43:32.441Z,63.45
2018-08-28T18:46:04.484Z,63.32
2018-08-28T18:48:36.417Z,64.31
2018-08-28T18:51:08.245Z,64.42
2018-08-28T18:53:40.234Z,62.96
2018-08-28T18:56:12.266Z,63.34
2018-08-28T18:58:44.002Z,63.20
2018-08-28T19:01:15.909Z,62.06
2018-08-28T19:03:47.771Z,63.08
2018-08-28T19:06:19.848Z,62.92
2018-08-28T19:08:51.755Z,62.39
2018-08-28T19:11:25.120Z,62.25
2018-08-28T19:13:57.280Z,61.74
2018-08-28T19:16:28.966Z,62.29
2018-08-28T19:19:00.973Z,62.23
2018-08-28T19:21:32.610Z,63.29
2018-08-28T19:24:04.542Z,63.00
2018-08-28T19:26:36.105Z,62.24
2018-08-28T19:29:07.858Z,63.01
2018-08-28T19:31:39.644Z,62.21
2018-08-28T19:34:11.938Z,62.47
2018-08-28T19:36:43.957Z,62.66
2018-08-28T19:39:15.862Z,62.76
2018-08-28T19:41:47.754Z,61.53
2018-08-28T19:44:19.726Z,61.59
2018-08-28T19:46:51.801Z,62.08
2018-08-28T19:49:23.601Z,61.97
2018-08-28T19:51:55.156Z,62.58
2018-08-28T19:54:26.953Z,61.68
2018-08-28T19:56:59.077Z,61.78
2018-08-28T19:59:30.815Z,62.36
2018-08-28T20:02:03.060Z,62.04
2018-08-28T20:04:35.181Z,61.71
2018-08-28T20:07:07.047Z,62.44
2018-08-28T20:09:38.919Z,62.50
2018-08-28T20:12:11.021Z,61.11
2018-08-28T20:16:07.447Z,62.20
2018-08-28T20:18:39.298Z,62.35
2018-08-28T20:21:11.061Z,62.17
2018-08-28T20:23:42.918Z,61.71
2018-08-28T20:26:14.664Z,61.66
2018-08-28T20:28:46.512Z,62.19
2018-08-28T20:31:18.279Z,57.75
2018-08-28T20:33:50.098Z,58.31
2018-08-28T20:36:21.548Z,58.22
2018-08-28T20:38:53.369Z,58.30
2018-08-28T20:41:24.957Z,59.45
2018-08-28T20:43:56.588Z,60.44
2018-08-28T20:46:28.192Z,60.23
2018-08-28T20:49:00.925Z,60.42
2018-08-28T20:51:32.807Z,60.15
2018-08-28T20:54:04.378Z,60.91
2018-08-28T20:56:36.180Z,60.44
2018-08-28T20:59:08.264Z,61.81
2018-08-28T21:01:40.606Z,60.53
2018-08-28T21:04:12.627Z,60.24
2018-08-28T21:06:44.451Z,61.72
2018-08-28T21:09:16.158Z,62.06
2018-08-28T21:11:47.967Z,61.66
2018-08-28T21:14:21.121Z,61.54
2018-08-28T21:16:53.149Z,61.50
2018-08-28T21:19:24.813Z,61.45
2018-08-28T21:21:56.568Z,62.50
2018-08-28T21:24:28.429Z,62.88
2018-08-28T21:27:00.301Z,61.47
2018-08-28T21:29:31.661Z,62.12
2018-08-28T21:32:03.644Z,61.75
2018-08-28T21:34:35.485Z,63.04
2018-08-28T21:37:07.294Z,61.60
2018-08-28T21:39:38.731Z,61.44
2018-08-28T21:42:10.631Z,61.13
2018-08-28T21:44:42.585Z,61.73
2018-08-28T21:47:14.299Z,63.08
2018-08-28T21:49:45.977Z,63.75
2018-08-28T21:52:18.196Z,63.06
2018-08-28T21:54:49.701Z,63.15
2018-08-28T21:57:21.503Z,62.67
2018-08-28T21:59:53.402Z,63.58
2018-08-28T22:02:25.172Z,64.30
2018-08-28T22:04:56.932Z,65.19
2018-08-28T22:07:33.711Z,63.94
2018-08-28T22:10:05.570Z,63.34
2018-08-28T22:12:37.526Z,64.77
2018-08-28T22:15:13.528Z,62.85
2018-08-28T22:17:45.491Z,63.12
2018-08-28T22:20:17.553Z,62.43
2018-08-28T22:22:49.381Z,63.13
2018-08-28T22:25:21.058Z,62.71
2018-08-28T22:27:53.012Z,62.72
2018-08-28T22:30:25.761Z,62.45
2018-08-28T22:32:57.882Z,62.73
2018-08-28T22:35:29.829Z,62.45
2018-08-28T22:38:01.798Z,62.31
2018-08-28T22:40:33.256Z,62.15
2018-08-28T22:43:05.314Z,63.41
2018-08-28T22:45:37.845Z,63.26
2018-08-28T22:48:09.650Z,62.12
2018-08-28T22:50:41.688Z,63.20
2018-08-28T22:53:13.244Z,63.17
2018-08-28T22:55:44.946Z,62.97
2018-08-28T22:58:16.958Z,62.79
2018-08-28T23:00:48.600Z,62.43
2018-08-28T23:03:20.567Z,62.32
2018-08-28T23:05:52.235Z,62.44
2018-08-28T23:08:24.046Z,62.12
2018-08-28T23:10:55.671Z,61.80
2018-08-28T23:13:27.475Z,61.21
2018-08-28T23:16:00.543Z,61.75
2018-08-28T23:18:32.376Z,61.90
2018-08-28T23:21:04.281Z,61.99
2018-08-28T23:23:36.413Z,61.53
2018-08-28T23:26:08.054Z,61.78
2018-08-28T23:28:39.988Z,62.06
2018-08-28T23:31:11.706Z,63.00
2018-08-28T23:33:43.555Z,61.59
2018-08-28T23:36:15.311Z,63.60
2018-08-28T23:38:47.208Z,62.00
2018-08-28T23:41:18.851Z,63.21
2018-08-28T23:43:50.971Z,62.32
2018-08-28T23:46:22.559Z,61.69
2018-08-28T23:48:54.506Z,62.83
2018-08-28T23:51:26.295Z,62.44
2018-08-28T23:53:58.125Z,63.59
2018-08-28T23:56:29.777Z,64.08
2018-08-28T23:59:01.691Z,63.29
